Time;durP1;ratioP1;P1;durP2;ratioP2;P2;SDS_P1;SDS_P2;PMS_P1;PMS_P2;Temp;Humidity;BMP_temperature;BMP_pressure;BME280_temperature;BME280_humidity;BME280_pressure;Samples;Min_cycle;Max_cycle;Signal;HPM_P1;HPM_P2
2021/12/08 00:00:55;;;;;;;4.23;3.90;;;;;;;-2.40;100.00;96864.72;4973114;28;20452;-73
2021/12/08 00:03:25;;;;;;;5.07;4.00;;;;;;;-2.34;100.00;96861.69;4941485;28;20579;-76
2021/12/08 00:05:53;;;;;;;4.47;4.07;;;;;;;-2.25;100.00;96864.53;4971567;28;20449;-72
2021/12/08 00:08:23;;;;;;;5.90;4.03;;;;;;;-2.28;100.00;96865.56;4970683;28;20489;-75
2021/12/08 00:13:02;;;;;;;4.40;4.00;;;;;;;-2.35;100.00;96856.59;4933055;28;21091;-74
2021/12/08 00:13:41;;;;;;;4.50;4.20;;;;;;;-2.31;100.00;96852.00;4959236;28;20453;-74
2021/12/08 00:16:12;;;;;;;7.03;4.57;;;;;;;-2.34;100.00;96840.91;4970685;28;20450;-71
2021/12/08 00:18:46;;;;;;;4.10;3.87;;;;;;;-2.35;100.00;96833.22;4927274;28;20588;-72
2021/12/08 00:21:16;;;;;;;4.67;4.27;;;;;;;-2.31;100.00;96839.03;4967489;28;20503;-74
2021/12/08 00:23:45;;;;;;;4.90;4.50;;;;;;;-2.33;100.00;96834.78;4956175;28;20572;-71
2021/12/08 00:26:14;;;;;;;4.93;4.53;;;;;;;-2.43;100.00;96843.34;4946287;28;20476;-76
2021/12/08 00:28:42;;;;;;;7.37;4.50;;;;;;;-2.48;100.00;96828.94;4943318;28;20742;-73
2021/12/08 00:31:11;;;;;;;5.47;4.97;;;;;;;-2.48;100.00;96826.34;4968633;28;20458;-73
2021/12/08 00:33:39;;;;;;;5.07;4.57;;;;;;;-2.49;100.00;96824.69;4937644;28;20496;-73
2021/12/08 00:36:12;;;;;;;5.00;4.60;;;;;;;-2.55;100.00;96817.34;4955065;28;20463;-73
2021/12/08 00:38:40;;;;;;;6.37;4.20;;;;;;;-2.55;100.00;96813.91;4967191;28;20788;-72
2021/12/08 00:41:09;;;;;;;4.50;4.20;;;;;;;-2.47;100.00;96815.03;4949812;28;20460;-73
2021/12/08 00:43:40;;;;;;;6.93;4.60;;;;;;;-2.40;100.00;96822.34;4953787;28;20846;-71
2021/12/08 00:46:08;;;;;;;5.67;5.10;;;;;;;-2.42;100.00;96793.09;4954011;28;20221;-73
2021/12/08 00:48:39;;;;;;;7.03;4.60;;;;;;;-2.38;100.00;96790.19;4938302;28;20909;-73
2021/12/08 00:51:07;;;;;;;5.20;4.70;;;;;;;-2.26;100.00;96775.47;4969441;28;20460;-76
2021/12/08 00:53:35;;;;;;;4.83;4.53;;;;;;;-2.20;100.00;96781.97;4951144;28;20550;-72
2021/12/08 00:56:05;;;;;;;5.57;4.97;;;;;;;-2.17;100.00;96776.53;4950143;28;20477;-73
2021/12/08 00:58:33;;;;;;;5.73;4.93;;;;;;;-2.08;100.00;96773.28;4937446;28;21159;-71
2021/12/08 01:01:02;;;;;;;5.27;4.77;;;;;;;-1.97;100.00;96779.44;4968677;28;20461;-74
2021/12/08 01:03:31;;;;;;;10.53;4.57;;;;;;;-1.93;100.00;96779.06;4952990;28;20457;-73
2021/12/08 01:06:00;;;;;;;5.10;4.70;;;;;;;-1.90;100.00;96783.22;4942086;28;20851;-71
2021/12/08 01:08:29;;;;;;;5.23;4.77;;;;;;;-1.80;100.00;96770.38;4967804;28;20516;-74
2021/12/08 01:11:01;;;;;;;7.63;5.13;;;;;;;-1.70;100.00;96760.09;4953509;28;20454;-73
2021/12/08 01:13:29;;;;;;;4.83;4.30;;;;;;;-1.72;100.00;96752.41;4947185;28;20460;-74
2021/12/08 01:15:59;;;;;;;5.93;5.13;;;;;;;-1.75;100.00;96747.47;4941717;28;20518;-72
2021/12/08 01:18:30;;;;;;;4.90;4.40;;;;;;;-1.74;100.00;96743.91;4964523;28;20561;-73
2021/12/08 01:21:00;;;;;;;5.27;3.93;;;;;;;-1.68;100.00;96743.44;4939125;28;20831;-74
2021/12/08 01:23:28;;;;;;;5.07;3.93;;;;;;;-1.69;100.00;96736.59;4952285;28;20465;-75
2021/12/08 01:25:57;;;;;;;4.67;4.27;;;;;;;-1.57;100.00;96740.03;4970634;28;20645;-71
2021/12/08 01:28:26;;;;;;;5.67;4.27;;;;;;;-1.59;100.00;96741.91;4942325;28;20492;-74
2021/12/08 01:30:56;;;;;;;4.97;4.60;;;;;;;-1.58;100.00;96748.75;4948474;28;20469;-72
2021/12/08 01:33:25;;;;;;;6.50;4.50;;;;;;;-1.57;100.00;96747.81;4959312;28;20956;-73
2021/12/08 01:35:54;;;;;;;4.00;3.70;;;;;;;-1.55;100.00;96742.50;4938083;28;20472;-73
2021/12/08 01:38:23;;;;;;;4.87;4.20;;;;;;;-1.56;100.00;96744.28;4967133;28;20473;-74
2021/12/08 01:40:52;;;;;;;6.07;4.37;;;;;;;-1.60;100.00;96737.66;4951960;28;20449;-72
2021/12/08 01:43:28;;;;;;;5.23;4.13;;;;;;;-1.60;100.00;96733.28;4939241;28;20457;-73
2021/12/08 01:46:00;;;;;;;4.77;4.37;;;;;;;-1.59;100.00;96728.94;4957083;28;20579;-71
2021/12/08 01:48:31;;;;;;;4.83;4.10;;;;;;;-1.63;100.00;96719.72;4958853;28;20865;-73
2021/12/08 01:51:02;;;;;;;4.50;4.17;;;;;;;-1.58;100.00;96712.38;4971226;28;20841;-73
2021/12/08 01:53:31;;;;;;;4.80;4.30;;;;;;;-1.53;100.00;96718.06;4950638;28;20964;-74
2021/12/08 01:56:00;;;;;;;5.00;4.50;;;;;;;-1.49;100.00;96714.25;4971553;28;20457;-72
2021/12/08 01:58:28;;;;;;;4.47;4.10;;;;;;;-1.53;100.00;96706.81;4947446;28;20510;-73
2021/12/08 02:00:59;;;;;;;4.10;3.70;;;;;;;-1.42;100.00;96711.19;4969533;28;20453;-70
2021/12/08 02:03:29;;;;;;;5.07;4.57;;;;;;;-1.47;100.00;96703.75;4945019;28;20210;-75
2021/12/08 02:06:00;;;;;;;4.47;4.07;;;;;;;-1.52;100.00;96696.31;4966991;28;20572;-73
2021/12/08 02:08:28;;;;;;;4.40;4.03;;;;;;;-1.49;100.00;96690.06;4937844;28;20496;-74
2021/12/08 02:10:58;;;;;;;4.57;4.27;;;;;;;-1.45;100.00;96691.47;4959888;28;20458;-73
2021/12/08 02:13:27;;;;;;;4.10;3.73;;;;;;;-1.31;100.00;96687.78;4953721;28;20202;-76
2021/12/08 02:15:55;;;;;;;5.50;4.40;;;;;;;-1.26;100.00;96685.66;4950450;28;20803;-72
2021/12/08 02:18:24;;;;;;;4.60;4.20;;;;;;;-1.22;100.00;96675.81;4954295;28;20473;-76
2021/12/08 02:20:52;;;;;;;4.87;4.47;;;;;;;-1.18;100.00;96677.22;4974278;28;20452;-72
2021/12/08 02:23:21;;;;;;;5.43;4.03;;;;;;;-1.14;100.00;96681.22;4928655;28;20832;-75
2021/12/08 02:25:50;;;;;;;4.00;3.70;;;;;;;-1.12;100.00;96689.75;4964546;28;20945;-71
2021/12/08 02:28:18;;;;;;;3.30;3.10;;;;;;;-1.07;100.00;96684.16;4953417;28;20567;-73
2021/12/08 02:30:51;;;;;;;5.37;4.53;;;;;;;-1.01;100.00;96688.88;4949162;28;20417;-72
2021/12/08 02:47:17;;;;;;;4.53;3.20;;;;;;;-0.95;100.00;96677.97;4939901;28;20221;-75
2021/12/08 02:49:45;;;;;;;4.03;3.60;;;;;;;-0.94;100.00;96671.84;4956530;28;20487;-72
2021/12/08 02:52:15;;;;;;;5.70;4.70;;;;;;;-0.83;100.00;96662.31;4958908;28;20230;-73
2021/12/08 02:54:47;;;;;;;3.00;2.87;;;;;;;-0.88;100.00;96658.31;4941326;28;20223;-71
2021/12/08 02:57:17;;;;;;;3.47;3.20;;;;;;;-0.82;100.00;96661.38;4954218;28;20214;-75
2021/12/08 02:59:48;;;;;;;3.03;2.83;;;;;;;-0.83;100.00;96663.13;4970891;28;20244;-70
2021/12/08 03:02:17;;;;;;;3.20;3.00;;;;;;;-0.74;100.00;96674.56;4931646;28;20714;-71
2021/12/08 03:04:47;;;;;;;3.83;3.33;;;;;;;-0.81;100.00;96670.81;4960015;28;20218;-72
2021/12/08 03:07:15;;;;;;;4.27;2.93;;;;;;;-0.80;100.00;96670.69;4945092;28;20247;-70
2021/12/08 03:09:45;;;;;;;3.47;2.87;;;;;;;-0.66;100.00;96666.97;4928883;28;20490;-73
2021/12/08 03:12:13;;;;;;;3.40;3.20;;;;;;;-0.73;100.00;96678.81;4963036;28;20245;-72
2021/12/08 03:14:41;;;;;;;4.03;2.70;;;;;;;-0.71;100.00;96689.94;4941385;28;20476;-73
2021/12/08 03:17:10;;;;;;;5.33;3.47;;;;;;;-0.72;100.00;96688.28;4944649;28;20214;-72
2021/12/08 03:19:38;;;;;;;3.17;2.97;;;;;;;-0.67;100.00;96691.31;4961857;28;20226;-69
2021/12/08 03:22:10;;;;;;;4.07;3.30;;;;;;;-0.62;100.00;96685.75;4943109;28;20213;-79
2021/12/08 03:24:42;;;;;;;3.00;2.80;;;;;;;-0.65;100.00;96688.63;4969782;28;21039;-74
2021/12/08 03:27:15;;;;;;;3.50;3.30;;;;;;;-0.64;100.00;96692.88;4924142;28;20229;-76
2021/12/08 03:29:50;;;;;;;4.10;3.40;;;;;;;-0.63;100.00;96687.53;4972780;28;20235;-75
2021/12/08 03:32:27;;;;;;;3.07;2.90;;;;;;;-0.56;100.00;96684.44;4956217;28;20218;-72
2021/12/08 03:34:56;;;;;;;3.90;3.60;;;;;;;-0.53;100.00;96694.59;4933508;28;20221;-72
2021/12/08 03:37:26;;;;;;;3.93;3.60;;;;;;;-0.50;100.00;96699.53;4970421;28;20217;-74
2021/12/08 03:39:56;;;;;;;3.67;3.40;;;;;;;-0.63;100.00;96692.72;4947904;28;20234;-72
2021/12/08 03:42:28;;;;;;;3.47;3.13;;;;;;;-0.68;100.00;96694.88;4934308;28;20443;-74
2021/12/08 03:45:01;;;;;;;3.20;2.90;;;;;;;-0.57;100.00;96704.41;4951572;28;20222;-73
2021/12/08 03:47:30;;;;;;;3.40;3.10;;;;;;;-0.52;100.00;96706.66;4966492;28;20202;-75
2021/12/08 03:50:00;;;;;;;3.43;3.23;;;;;;;-0.55;100.00;96719.91;4937899;28;20552;-75
2021/12/08 03:52:28;;;;;;;3.97;3.57;;;;;;;-0.58;100.00;96715.78;4962094;28;20429;-73
2021/12/08 03:54:56;;;;;;;5.40;3.10;;;;;;;-0.43;100.00;96721.50;4969210;28;20559;-73
2021/12/08 03:57:25;;;;;;;3.13;2.93;;;;;;;-0.49;100.00;96715.03;4937144;28;20224;-72
2021/12/08 03:59:53;;;;;;;6.30;3.03;;;;;;;-0.53;100.00;96713.63;4970119;28;20417;-73
2021/12/08 04:02:24;;;;;;;4.07;3.30;;;;;;;-0.52;100.00;96701.44;4941477;28;20999;-73
2021/12/08 04:04:52;;;;;;;4.77;3.03;;;;;;;-0.63;100.00;96700.53;4963373;28;20324;-72
2021/12/08 04:07:20;;;;;;;3.27;3.07;;;;;;;-0.59;100.00;96699.31;4946683;28;20649;-71
2021/12/08 04:09:50;;;;;;;3.10;2.90;;;;;;;-0.61;100.00;96698.63;4953443;28;20241;-72
2021/12/08 04:12:21;;;;;;;3.73;3.43;;;;;;;-0.61;100.00;96705.63;4930124;28;21128;-71
2021/12/08 04:14:54;;;;;;;3.20;3.00;;;;;;;-0.61;100.00;96697.81;4950928;28;20708;-71
2021/12/08 04:17:26;;;;;;;3.10;2.80;;;;;;;-0.53;100.00;96708.41;4955399;28;20417;-73
2021/12/08 04:19:55;;;;;;;3.70;3.10;;;;;;;-0.52;100.00;96704.06;4964786;28;20472;-73
2021/12/08 04:22:30;;;;;;;6.27;3.37;;;;;;;-0.59;100.00;96690.72;4936817;28;21136;-71
2021/12/08 04:25:01;;;;;;;3.67;3.40;;;;;;;-0.58;100.00;96689.75;4962984;28;20205;-74
2021/12/08 04:27:33;;;;;;;3.23;3.03;;;;;;;-0.60;100.00;96691.66;4920954;28;20452;-71
2021/12/08 04:30:06;;;;;;;3.87;3.30;;;;;;;-0.66;100.00;96677.38;4961025;28;20772;-72
2021/12/08 04:32:34;;;;;;;3.03;2.83;;;;;;;-0.64;100.00;96675.47;4948443;28;20602;-74
2021/12/08 04:35:07;;;;;;;3.37;3.07;;;;;;;-0.61;100.00;96671.78;4961365;28;20499;-73
2021/12/08 04:37:37;;;;;;;3.60;3.40;;;;;;;-0.56;100.00;96682.66;4943380;28;20209;-71
2021/12/08 04:40:16;;;;;;;3.60;3.30;;;;;;;-0.47;100.00;96678.47;4945104;28;20211;-73
2021/12/08 04:42:56;;;;;;;3.43;3.23;;;;;;;-0.51;100.00;96672.69;4934847;28;20239;-71
2021/12/08 04:45:34;;;;;;;3.97;2.50;;;;;;;-0.50;100.00;96663.91;4946758;28;20830;-73
2021/12/08 04:48:16;;;;;;;2.70;2.53;;;;;;;-0.48;100.00;96666.41;4958919;28;20488;-72
2021/12/08 04:51:15;;;;;;;2.87;2.77;;;;;;;-0.49;100.00;96668.16;4950238;28;20233;-71
2021/12/08 04:54:04;;;;;;;4.77;2.60;;;;;;;-0.42;100.00;96663.28;4942893;28;20210;-73
2021/12/08 05:02:25;;;;;;;4.20;3.23;;;;;;;-0.33;100.00;96665.13;4951226;28;20699;-73
2021/12/08 05:05:10;;;;;;;2.40;2.20;;;;;;;-0.27;100.00;96652.53;4958339;28;20217;-73
2021/12/08 05:07:49;;;;;;;3.03;2.70;;;;;;;-0.42;100.00;96655.47;4950941;28;20217;-72
2021/12/08 05:10:21;;;;;;;5.17;3.07;;;;;;;-0.34;100.00;96655.66;4941182;28;20356;-67
2021/12/08 05:12:52;;;;;;;3.17;2.90;;;;;;;-0.37;100.00;96655.91;4965294;28;20297;-68
2021/12/08 05:15:24;;;;;;;3.63;3.33;;;;;;;-0.37;100.00;96650.72;4924619;28;20304;-67
2021/12/08 05:17:58;;;;;;;3.23;3.03;;;;;;;-0.33;100.00;96653.91;4969234;28;20624;-68
2021/12/08 05:20:33;;;;;;;4.10;3.03;;;;;;;-0.39;100.00;96654.38;4945327;28;20406;-67
2021/12/08 05:23:06;;;;;;;3.53;3.23;;;;;;;-0.35;100.00;96663.63;4958646;28;20579;-67
2021/12/08 05:25:36;;;;;;;6.80;3.30;;;;;;;-0.27;100.00;96662.94;4942595;28;20201;-68
2021/12/08 05:28:12;;;;;;;2.83;2.63;;;;;;;-0.29;100.00;96660.50;4951384;28;20492;-68
2021/12/08 05:30:46;;;;;;;2.80;2.60;;;;;;;-0.36;100.00;96656.75;4933539;28;20236;-68
2021/12/08 05:33:16;;;;;;;3.80;3.30;;;;;;;-0.40;100.00;96656.16;4945623;28;20594;-69
2021/12/08 05:35:45;;;;;;;4.77;3.80;;;;;;;-0.38;100.00;96666.44;4965309;28;20210;-69
2021/12/08 05:38:14;;;;;;;5.97;3.57;;;;;;;-0.44;100.00;96657.38;4946180;28;20705;-69
2021/12/08 05:40:44;;;;;;;3.80;3.60;;;;;;;-0.54;100.00;96659.91;4942472;28;20225;-68
2021/12/08 05:43:13;;;;;;;4.03;3.73;;;;;;;-0.56;100.00;96659.22;4965143;28;20339;-69
2021/12/08 05:45:41;;;;;;;3.17;2.93;;;;;;;-0.41;100.00;96658.88;4926898;28;20552;-73
2021/12/08 05:48:11;;;;;;;3.40;3.20;;;;;;;-0.45;100.00;96666.16;4962304;28;20710;-71
2021/12/08 05:50:43;;;;;;;3.53;3.33;;;;;;;-0.57;100.00;96665.38;4933957;28;20873;-72
2021/12/08 05:53:11;;;;;;;4.17;3.77;;;;;;;-0.54;100.00;96662.53;4959563;28;20218;-70
2021/12/08 05:55:41;;;;;;;5.77;5.27;;;;;;;-0.63;100.00;96658.91;4937900;28;20248;-74
2021/12/08 05:58:10;;;;;;;6.80;6.10;;;;;;;-0.64;100.00;96659.03;4956597;28;20489;-71
2021/12/08 06:00:44;;;;;;;5.10;4.40;;;;;;;-0.71;100.00;96660.50;4950637;28;20461;-73
2021/12/08 06:03:12;;;;;;;4.93;3.87;;;;;;;-0.73;100.00;96665.81;4958260;28;20222;-73
2021/12/08 06:05:44;;;;;;;5.40;4.40;;;;;;;-0.84;100.00;96661.50;4950146;28;20447;-72
2021/12/08 06:08:12;;;;;;;4.03;3.70;;;;;;;-0.95;100.00;96672.75;4964881;28;20230;-72
2021/12/08 06:10:41;;;;;;;4.10;3.73;;;;;;;-0.97;100.00;96661.66;4952245;28;20221;-73
2021/12/08 06:13:12;;;;;;;5.67;4.83;;;;;;;-0.97;100.00;96666.03;4954784;28;20772;-72
2021/12/08 06:15:42;;;;;;;4.87;3.97;;;;;;;-0.98;100.00;96662.59;4959629;28;20831;-73
2021/12/08 06:18:10;;;;;;;6.03;4.43;;;;;;;-1.08;100.00;96664.31;4933266;28;20234;-72
2021/12/08 06:20:39;;;;;;;4.83;4.53;;;;;;;-1.23;100.00;96656.81;4957536;28;20484;-70
2021/12/08 06:23:11;;;;;;;13.27;10.83;;;;;;;-1.22;100.00;96666.25;4961162;28;20842;-71
2021/12/08 06:25:41;;;;;;;5.60;5.10;;;;;;;-1.10;100.00;96677.44;4964333;28;20471;-71
2021/12/08 06:28:09;;;;;;;4.83;4.37;;;;;;;-1.21;100.00;96673.09;4943170;28;20249;-70
2021/12/08 06:30:39;;;;;;;6.10;5.53;;;;;;;-1.24;100.00;96675.94;4961521;28;20551;-72
2021/12/08 06:33:09;;;;;;;6.30;5.60;;;;;;;-1.18;100.00;96670.25;4942718;28;20500;-71
2021/12/08 06:35:43;;;;;;;5.10;4.67;;;;;;;-1.21;100.00;96667.06;4961844;28;21062;-72
2021/12/08 06:38:13;;;;;;;5.27;4.87;;;;;;;-1.21;100.00;96667.06;4965216;28;20815;-72
2021/12/08 06:40:44;;;;;;;5.10;4.73;;;;;;;-1.13;100.00;96664.69;4950204;28;20413;-72
2021/12/08 06:43:17;;;;;;;6.20;5.70;;;;;;;-1.19;100.00;96655.59;4941026;28;20450;-74
2021/12/08 06:45:48;;;;;;;6.40;5.83;;;;;;;-1.21;100.00;96654.91;4947255;28;20460;-74
2021/12/08 06:48:20;;;;;;;6.93;5.37;;;;;;;-1.10;100.00;96651.44;4928126;28;20481;-73
2021/12/08 06:50:52;;;;;;;6.93;6.27;;;;;;;-1.12;100.00;96645.53;4953012;28;20503;-72
2021/12/08 06:53:56;;;;;;;6.70;6.10;;;;;;;-1.15;100.00;96644.94;4956336;28;20353;-74
2021/12/08 06:56:30;;;;;;;6.57;5.97;;;;;;;-1.15;100.00;96645.75;4960102;28;20468;-76
2021/12/08 06:59:01;;;;;;;7.57;6.37;;;;;;;-1.11;100.00;96649.78;4943126;28;20238;-74
2021/12/08 07:01:41;;;;;;;6.50;5.80;;;;;;;-1.10;100.00;96672.25;4967307;28;20210;-75
2021/12/08 07:04:26;;;;;;;6.07;5.57;;;;;;;-1.03;100.00;96680.34;4937408;28;20468;-76
2021/12/08 07:07:00;;;;;;;6.30;5.70;;;;;;;-1.06;100.00;96670.22;4969097;28;20201;-74
2021/12/08 07:09:34;;;;;;;7.03;6.33;;;;;;;-1.12;100.00;96652.50;4939088;28;20896;-74
2021/12/08 07:12:09;;;;;;;9.73;7.87;;;;;;;-1.10;100.00;96658.41;4964508;28;20578;-73
2021/12/08 07:14:38;;;;;;;7.60;6.87;;;;;;;-1.02;100.00;96663.81;4929871;28;20877;-75
2021/12/08 07:17:10;;;;;;;7.10;6.40;;;;;;;-1.03;100.00;96664.75;4966108;28;20445;-76
2021/12/08 07:19:45;;;;;;;6.23;5.73;;;;;;;-1.03;100.00;96665.59;4933061;28;20428;-73
2021/12/08 07:22:17;;;;;;;8.57;6.40;;;;;;;-0.94;100.00;96671.84;4956065;28;20206;-75
2021/12/08 07:24:50;;;;;;;7.50;6.53;;;;;;;-0.97;100.00;96663.44;4956251;28;20469;-72
2021/12/08 07:27:21;;;;;;;7.30;6.60;;;;;;;-1.02;100.00;96661.19;4950244;28;20917;-78
2021/12/08 07:29:50;;;;;;;7.90;7.20;;;;;;;-1.02;100.00;96656.84;4938639;28;20469;-74
2021/12/08 07:32:22;;;;;;;6.23;5.63;;;;;;;-1.03;100.00;96655.19;4958571;28;20229;-77
2021/12/08 07:34:52;;;;;;;7.33;6.63;;;;;;;-0.96;100.00;96660.69;4935839;28;20230;-76
2021/12/08 07:37:23;;;;;;;7.37;6.63;;;;;;;-0.90;100.00;96648.97;4967804;28;20458;-76
2021/12/08 07:39:58;;;;;;;8.53;6.10;;;;;;;-0.92;100.00;96658.69;4943202;28;20246;-72
2021/12/08 07:42:29;;;;;;;8.27;6.83;;;;;;;-0.91;100.00;96670.75;4963334;28;20858;-76
2021/12/08 07:45:00;;;;;;;7.13;6.43;;;;;;;-0.98;100.00;96675.59;4941432;28;20396;-75
2021/12/08 07:47:30;;;;;;;6.93;6.20;;;;;;;-0.95;100.00;96674.53;4958560;28;20457;-75
2021/12/08 07:50:01;;;;;;;6.67;6.10;;;;;;;-0.91;100.00;96676.78;4969868;28;20896;-74
2021/12/08 07:52:33;;;;;;;7.33;6.57;;;;;;;-0.94;100.00;96676.19;4941083;28;20492;-76
2021/12/08 07:55:05;;;;;;;9.43;6.70;;;;;;;-0.94;100.00;96669.22;4963855;28;20833;-76
2021/12/08 07:57:35;;;;;;;7.50;6.80;;;;;;;-0.90;100.00;96665.44;4941340;28;20412;-72
2021/12/08 08:00:08;;;;;;;7.93;5.97;;;;;;;-0.90;100.00;96669.78;4947271;28;20825;-74
2021/12/08 08:02:37;;;;;;;7.53;6.57;;;;;;;-0.82;100.00;96666.56;4947836;28;20550;-73
2021/12/08 08:05:09;;;;;;;8.07;7.37;;;;;;;-0.83;100.00;96668.34;4969798;28;20214;-74
2021/12/08 08:07:37;;;;;;;7.40;6.00;;;;;;;-0.88;100.00;96684.34;4934872;28;20444;-73
2021/12/08 08:10:13;;;;;;;10.00;6.63;;;;;;;-0.73;100.00;96682.25;4947103;28;20886;-73
2021/12/08 08:12:43;;;;;;;6.33;5.77;;;;;;;-0.79;100.00;96677.53;4956575;28;20492;-75
2021/12/08 08:15:15;;;;;;;7.73;7.07;;;;;;;-0.82;100.00;96680.41;4953979;28;20457;-72
2021/12/08 08:17:46;;;;;;;8.77;8.10;;;;;;;-0.76;100.00;96672.13;4947245;28;20966;-74
2021/12/08 08:20:18;;;;;;;8.17;7.37;;;;;;;-0.64;100.00;96679.84;4963594;28;20454;-76
2021/12/08 08:22:47;;;;;;;7.53;6.83;;;;;;;-0.64;100.00;96680.66;4927569;28;20228;-75
2021/12/08 08:25:19;;;;;;;7.53;6.57;;;;;;;-0.67;100.00;96674.91;4964367;28;20457;-76
2021/12/08 08:27:48;;;;;;;17.00;11.57;;;;;;;-0.63;100.00;96677.09;4937953;28;22023;-75
2021/12/08 08:30:21;;;;;;;8.47;7.10;;;;;;;-0.72;100.00;96677.88;4970096;28;20966;-77
2021/12/08 08:32:51;;;;;;;6.50;6.00;;;;;;;-0.68;100.00;96674.06;4927495;28;21376;-76
2021/12/08 08:35:24;;;;;;;6.47;5.87;;;;;;;-0.56;100.00;96674.03;4960913;28;20623;-74
2021/12/08 08:37:54;;;;;;;8.33;6.30;;;;;;;-0.65;100.00;96667.78;4972141;28;20698;-73
2021/12/08 08:40:26;;;;;;;6.93;6.37;;;;;;;-0.64;100.00;96664.25;4936243;28;20454;-76
2021/12/08 08:42:55;;;;;;;8.23;7.47;;;;;;;-0.61;100.00;96664.78;4963788;28;20474;-74
2021/12/08 08:45:26;;;;;;;9.00;8.10;;;;;;;-0.62;100.00;96667.53;4941627;28;20475;-75
2021/12/08 08:47:58;;;;;;;7.87;7.17;;;;;;;-0.58;100.00;96663.72;4944288;28;20556;-74
2021/12/08 08:50:33;;;;;;;10.10;7.00;;;;;;;-0.59;100.00;96662.91;4948487;28;20199;-80
2021/12/08 08:53:02;;;;;;;8.27;7.47;;;;;;;-0.69;100.00;96672.41;4967858;28;20229;-74
2021/12/08 08:55:49;;;;;;;8.20;7.20;;;;;;;-0.65;100.00;96658.19;4934272;28;20771;-74
2021/12/08 08:58:18;;;;;;;10.77;9.67;;;;;;;-0.58;100.00;96668.94;4946938;28;20530;-78
2021/12/08 09:00:49;;;;;;;7.73;6.80;;;;;;;-0.52;100.00;96672.81;4959992;28;20486;-72
2021/12/08 09:03:20;;;;;;;7.97;7.27;;;;;;;-0.49;100.00;96673.38;4945208;28;20453;-77
2021/12/08 09:05:52;;;;;;;8.60;7.80;;;;;;;-0.59;100.00;96673.31;4958345;28;20814;-75
2021/12/08 09:08:25;;;;;;;10.53;7.07;;;;;;;-0.66;100.00;96666.97;4958835;28;20289;-79
2021/12/08 09:10:58;;;;;;;9.13;7.63;;;;;;;-0.54;100.00;96659.13;4937975;28;20214;-79
2021/12/08 09:13:30;;;;;;;7.23;6.13;;;;;;;-0.62;100.00;96660.53;4962536;28;20478;-76
2021/12/08 09:16:02;;;;;;;9.20;7.40;;;;;;;-0.59;100.00;96655.09;4950715;28;20450;-73
2021/12/08 09:18:38;;;;;;;8.57;7.57;;;;;;;-0.64;100.00;96648.63;4964551;28;20315;-73
2021/12/08 09:21:15;;;;;;;9.50;7.87;;;;;;;-0.70;100.00;96639.53;4926485;28;20202;-74
2021/12/08 09:23:48;;;;;;;11.07;8.50;;;;;;;-0.69;100.00;96637.78;4962425;28;20505;-76
2021/12/08 09:26:21;;;;;;;13.07;8.53;;;;;;;-0.63;100.00;96630.28;4933398;28;20882;-75
2021/12/08 09:28:54;;;;;;;8.87;8.03;;;;;;;-0.49;100.00;96629.13;4959572;28;20320;-75
2021/12/08 09:31:25;;;;;;;11.43;8.27;;;;;;;-0.28;100.00;96627.44;4959532;28;20717;-79
2021/12/08 09:33:57;;;;;;;8.80;8.00;;;;;;;-0.32;100.00;96621.69;4950582;28;20225;-75
2021/12/08 09:36:28;;;;;;;10.10;8.43;;;;;;;-0.30;100.00;96625.81;4937468;28;20225;-77
2021/12/08 09:39:00;;;;;;;8.63;7.73;;;;;;;-0.32;100.00;96627.72;4953000;28;20238;-74
2021/12/08 09:41:36;;;;;;;14.03;7.77;;;;;;;-0.35;100.00;96627.97;4935611;28;20623;-75
2021/12/08 09:44:09;;;;;;;9.57;8.57;;;;;;;-0.45;100.00;96612.28;4958335;28;20759;-75
2021/12/08 09:46:40;;;;;;;8.43;7.63;;;;;;;-0.48;100.00;96617.75;4941541;28;20205;-75
2021/12/08 09:49:09;;;;;;;8.37;7.57;;;;;;;-0.51;100.00;96623.22;4959733;28;20511;-73
2021/12/08 09:51:38;;;;;;;8.63;7.73;;;;;;;-0.50;100.00;96618.88;4943014;28;20465;-74
2021/12/08 09:54:07;;;;;;;11.30;8.03;;;;;;;-0.49;100.00;96610.09;4964105;28;20473;-77
2021/12/08 09:56:37;;;;;;;9.63;7.50;;;;;;;-0.51;100.00;96612.00;4952014;28;20775;-73
2021/12/08 09:59:06;;;;;;;7.60;6.90;;;;;;;-0.42;100.00;96599.97;4934692;28;20843;-75
2021/12/08 10:01:37;;;;;;;10.43;7.30;;;;;;;-0.39;100.00;96589.31;4953758;28;21216;-75
2021/12/08 10:04:06;;;;;;;9.70;8.03;;;;;;;-0.34;100.00;96580.16;4952989;28;20215;-74
2021/12/08 10:06:35;;;;;;;9.90;8.37;;;;;;;-0.35;100.00;96575.09;4941988;28;20776;-76
2021/12/08 10:09:03;;;;;;;9.47;7.60;;;;;;;-0.32;100.00;96570.44;4970661;28;20441;-75
2021/12/08 10:11:32;;;;;;;10.67;8.13;;;;;;;-0.28;100.00;96578.00;4968776;28;20218;-73
2021/12/08 10:14:02;;;;;;;9.07;8.30;;;;;;;-0.18;100.00;96586.69;4942111;28;20232;-76
2021/12/08 10:16:32;;;;;;;9.07;8.17;;;;;;;-0.04;100.00;96591.53;4960785;28;20460;-75
2021/12/08 10:19:00;;;;;;;9.00;8.20;;;;;;;-0.10;100.00;96584.25;4953810;28;20705;-73
2021/12/08 10:21:33;;;;;;;8.20;7.47;;;;;;;0.04;100.00;96577.00;4941141;28;20229;-74
2021/12/08 10:24:01;;;;;;;10.80;9.07;;;;;;;-0.03;100.00;96564.50;4963279;28;20465;-71
2021/12/08 10:26:33;;;;;;;9.17;8.13;;;;;;;-0.18;100.00;96561.44;4969195;28;20206;-75
2021/12/08 10:29:05;;;;;;;8.60;7.73;;;;;;;-0.22;100.00;96543.59;4942279;28;20253;-74
2021/12/08 10:31:39;;;;;;;8.27;7.57;;;;;;;-0.28;100.00;96528.53;4956464;28;20205;-75
2021/12/08 10:34:21;;;;;;;9.33;7.90;;;;;;;-0.32;100.00;96523.56;4971609;28;20885;-72
2021/12/08 10:36:53;;;;;;;10.27;7.97;;;;;;;-0.24;100.00;96524.69;4941106;28;21034;-74
2021/12/08 10:39:28;;;;;;;9.70;8.73;;;;;;;-0.16;100.00;96527.47;4961907;28;20234;-74
2021/12/08 10:42:06;;;;;;;9.63;8.13;;;;;;;-0.17;100.00;96536.25;4954068;28;20206;-73
2021/12/08 10:44:53;;;;;;;8.67;7.87;;;;;;;-0.19;100.00;96545.94;4949834;28;20308;-74
2021/12/08 10:47:28;;;;;;;8.60;7.43;;;;;;;-0.15;100.00;96542.16;4950220;28;20594;-76
2021/12/08 10:55:38;;;;;;;7.53;6.90;;;;;;;0.03;100.00;96577.97;4962601;28;20733;-73
2021/12/08 10:58:07;;;;;;;8.60;7.70;;;;;;;0.00;100.00;96568.66;4972645;28;20500;-73
2021/12/08 11:00:39;;;;;;;9.57;7.90;;;;;;;0.14;100.00;96575.25;4941708;28;20999;-74
2021/12/08 11:03:08;;;;;;;8.50;7.60;;;;;;;0.15;100.00;96579.50;4967949;28;20218;-73
2021/12/08 11:05:49;;;;;;;8.07;7.37;;;;;;;0.13;100.00;96569.22;4940143;28;20209;-74
2021/12/08 11:08:21;;;;;;;9.27;8.27;;;;;;;0.13;100.00;96571.81;4944259;28;20232;-77
2021/12/08 11:10:52;;;;;;;9.10;8.20;;;;;;;0.16;100.00;96573.31;4958297;28;20848;-74
2021/12/08 11:13:22;;;;;;;7.57;6.87;;;;;;;0.11;100.00;96572.91;4949979;28;20265;-78
2021/12/08 11:16:06;;;;;;;8.60;7.20;;;;;;;0.04;100.00;96572.63;4956844;28;20453;-75
2021/12/08 11:18:43;;;;;;;7.60;7.00;;;;;;;0.01;100.00;96575.50;4936886;28;20230;-76
2021/12/08 11:21:24;;;;;;;7.63;6.90;;;;;;;-0.02;100.00;96579.19;4964934;28;20205;-74
2021/12/08 11:24:20;;;;;;;10.47;8.27;;;;;;;-0.03;100.00;96569.72;4927880;28;20607;-77
2021/12/08 11:26:56;;;;;;;8.13;7.43;;;;;;;0.03;100.00;96575.34;4960745;28;20518;-73
2021/12/08 11:29:35;;;;;;;8.90;8.00;;;;;;;0.03;100.00;96571.00;4925747;28;21048;-75
2021/12/08 11:32:08;;;;;;;8.40;7.60;;;;;;;0.06;100.00;96582.91;4962073;28;20206;-79
2021/12/08 11:34:37;;;;;;;8.53;7.67;;;;;;;0.03;100.00;96576.19;4945374;28;20960;-74
2021/12/08 11:37:08;;;;;;;8.53;7.73;;;;;;;-0.01;100.00;96580.84;4972576;28;20221;-75
2021/12/08 11:39:38;;;;;;;9.43;8.53;;;;;;;0.06;100.00;96568.13;4943925;28;20610;-73
2021/12/08 11:42:12;;;;;;;9.03;8.13;;;;;;;0.05;100.00;96570.84;4956345;28;20216;-75
2021/12/08 11:44:42;;;;;;;8.53;7.73;;;;;;;0.14;100.00;96565.66;4961321;28;20728;-76
2021/12/08 11:47:14;;;;;;;9.13;7.43;;;;;;;0.07;100.00;96559.34;4921782;28;20225;-75
2021/12/08 11:49:44;;;;;;;8.90;8.03;;;;;;;0.01;100.00;96561.66;4954765;28;20469;-75
2021/12/08 11:52:18;;;;;;;9.50;8.67;;;;;;;0.02;100.00;96555.47;4972464;28;20210;-75
2021/12/08 11:54:49;;;;;;;11.20;8.17;;;;;;;-0.01;100.00;96561.75;4935590;28;20614;-73
2021/12/08 11:57:21;;;;;;;13.27;10.97;;;;;;;0.10;100.00;96566.88;4966876;28;20218;-75
2021/12/08 11:59:59;;;;;;;9.17;8.27;;;;;;;0.15;100.00;96556.03;4953370;28;20444;-75
2021/12/08 12:02:33;;;;;;;9.20;8.40;;;;;;;0.03;100.00;96557.97;4934730;28;20221;-76
2021/12/08 12:05:02;;;;;;;9.43;8.50;;;;;;;0.07;100.00;96559.34;4957206;28;20224;-73
2021/12/08 12:07:30;;;;;;;9.33;8.43;;;;;;;0.01;100.00;96559.03;4965162;28;20209;-73
2021/12/08 12:09:58;;;;;;;12.17;8.77;;;;;;;-0.06;100.00;96553.53;4947016;28;20237;-71